sensor_id;sensor_type;location;lat;lon;timestamp;pressure;altitude;pressure_sealevel;temperature;humidity
72961;BME280;61141;46.204;19.774;2022-12-18T00:00:42;101839.34;;;-0.54;93.22
72961;BME280;61141;46.204;19.774;2022-12-18T00:03:45;101840.97;;;-0.17;93.36
72961;BME280;61141;46.204;19.774;2022-12-18T00:06:49;101843.69;;;-0.53;92.38
72961;BME280;61141;46.204;19.774;2022-12-18T00:09:52;101839.00;;;-0.26;92.55
72961;BME280;61141;46.204;19.774;2022-12-18T00:12:55;101850.41;;;-0.09;93.11
72961;BME280;61141;46.204;19.774;2022-12-18T00:16:06;101856.03;;;-0.11;92.36
72961;BME280;61141;46.204;19.774;2022-12-18T00:19:09;101860.00;;;-0.28;92.59
72961;BME280;61141;46.204;19.774;2022-12-18T00:22:12;101870.66;;;-0.43;91.97
72961;BME280;61141;46.204;19.774;2022-12-18T00:25:19;101856.78;;;-0.25;92.13
72961;BME280;61141;46.204;19.774;2022-12-18T00:28:22;101878.75;;;-0.38;92.30
72961;BME280;61141;46.204;19.774;2022-12-18T00:31:25;101884.53;;;-0.88;92.76
72961;BME280;61141;46.204;19.774;2022-12-18T00:34:29;101882.62;;;-0.93;93.60
72961;BME280;61141;46.204;19.774;2022-12-18T00:37:33;101882.28;;;-0.70;93.86
72961;BME280;61141;46.204;19.774;2022-12-18T00:40:37;101886.25;;;-0.77;93.45
72961;BME280;61141;46.204;19.774;2022-12-18T00:43:40;101905.50;;;-0.64;93.71
72961;BME280;61141;46.204;19.774;2022-12-18T00:46:44;101906.41;;;-0.48;93.87
72961;BME280;61141;46.204;19.774;2022-12-18T00:49:47;101911.72;;;-0.58;93.09
72961;BME280;61141;46.204;19.774;2022-12-18T00:52:50;101911.06;;;-0.70;92.65
72961;BME280;61141;46.204;19.774;2022-12-18T00:55:53;101920.19;;;-0.44;93.75
72961;BME280;61141;46.204;19.774;2022-12-18T00:58:56;101919.97;;;-0.70;93.45
72961;BME280;61141;46.204;19.774;2022-12-18T01:01:59;101921.22;;;-0.77;93.07
72961;BME280;61141;46.204;19.774;2022-12-18T01:05:02;101918.06;;;-0.37;92.73
72961;BME280;61141;46.204;19.774;2022-12-18T01:08:05;101926.81;;;-0.84;92.56
72961;BME280;61141;46.204;19.774;2022-12-18T01:11:11;101936.59;;;-0.73;92.63
72961;BME280;61141;46.204;19.774;2022-12-18T01:14:15;101939.19;;;-0.83;93.24
72961;BME280;61141;46.204;19.774;2022-12-18T01:17:18;101942.03;;;-0.94;92.98
72961;BME280;61141;46.204;19.774;2022-12-18T01:20:21;101940.47;;;-0.90;92.76
72961;BME280;61141;46.204;19.774;2022-12-18T01:23:26;101937.66;;;-0.74;94.01
72961;BME280;61141;46.204;19.774;2022-12-18T01:26:29;101941.38;;;-0.80;94.25
72961;BME280;61141;46.204;19.774;2022-12-18T01:29:32;101947.97;;;-0.92;93.46
72961;BME280;61141;46.204;19.774;2022-12-18T01:32:35;101947.38;;;-1.21;93.44
72961;BME280;61141;46.204;19.774;2022-12-18T01:35:42;101950.53;;;-0.81;94.38
72961;BME280;61141;46.204;19.774;2022-12-18T01:38:45;101947.50;;;-1.11;93.53
72961;BME280;61141;46.204;19.774;2022-12-18T01:41:48;101953.06;;;-1.17;93.90
72961;BME280;61141;46.204;19.774;2022-12-18T01:45:30;101963.88;;;-1.12;94.43
72961;BME280;61141;46.204;19.774;2022-12-18T01:48:33;101964.09;;;-1.19;93.56
72961;BME280;61141;46.204;19.774;2022-12-18T01:51:36;101967.44;;;-1.07;93.48
72961;BME280;61141;46.204;19.774;2022-12-18T01:54:39;101970.38;;;-1.08;95.16
72961;BME280;61141;46.204;19.774;2022-12-18T01:57:42;101972.69;;;-1.17;94.61
72961;BME280;61141;46.204;19.774;2022-12-18T02:00:45;101975.50;;;-1.07;94.25
72961;BME280;61141;46.204;19.774;2022-12-18T02:03:49;101983.84;;;-1.30;93.71
72961;BME280;61141;46.204;19.774;2022-12-18T02:07:01;101984.78;;;-1.20;94.66
72961;BME280;61141;46.204;19.774;2022-12-18T02:17:10;101997.28;;;-1.08;94.87
72961;BME280;61141;46.204;19.774;2022-12-18T02:20:34;101990.56;;;-1.06;94.96
72961;BME280;61141;46.204;19.774;2022-12-18T02:27:06;102005.22;;;-0.97;93.92
72961;BME280;61141;46.204;19.774;2022-12-18T02:30:09;102009.94;;;-1.04;93.67
72961;BME280;61141;46.204;19.774;2022-12-18T02:33:14;102010.31;;;-0.95;93.84
72961;BME280;61141;46.204;19.774;2022-12-18T02:36:18;102008.44;;;-0.95;93.37
72961;BME280;61141;46.204;19.774;2022-12-18T02:39:26;102003.94;;;-0.89;93.19
72961;BME280;61141;46.204;19.774;2022-12-18T02:42:31;102014.94;;;-0.91;92.97
72961;BME280;61141;46.204;19.774;2022-12-18T02:45:35;102022.12;;;-0.75;93.12
72961;BME280;61141;46.204;19.774;2022-12-18T02:48:38;102015.81;;;-0.64;93.21
72961;BME280;61141;46.204;19.774;2022-12-18T02:51:52;102037.19;;;-0.47;92.55
72961;BME280;61141;46.204;19.774;2022-12-18T02:58:23;102028.88;;;-0.45;92.32
72961;BME280;61141;46.204;19.774;2022-12-18T03:04:48;102043.91;;;-0.49;91.48
72961;BME280;61141;46.204;19.774;2022-12-18T03:08:22;102042.12;;;-0.12;90.68
72961;BME280;61141;46.204;19.774;2022-12-18T03:11:32;102043.59;;;-0.26;90.89
72961;BME280;61141;46.204;19.774;2022-12-18T03:15:16;102043.78;;;-0.06;90.88
72961;BME280;61141;46.204;19.774;2022-12-18T03:18:28;102052.22;;;-0.24;90.25
72961;BME280;61141;46.204;19.774;2022-12-18T03:21:59;102045.91;;;-0.67;90.11
72961;BME280;61141;46.204;19.774;2022-12-18T03:25:00;102054.63;;;-0.28;90.64
72961;BME280;61141;46.204;19.774;2022-12-18T03:28:07;102059.34;;;-0.13;91.38
72961;BME280;61141;46.204;19.774;2022-12-18T03:31:14;102064.00;;;-0.04;90.84
72961;BME280;61141;46.204;19.774;2022-12-18T03:34:27;102075.41;;;-0.23;89.98
72961;BME280;61141;46.204;19.774;2022-12-18T03:37:34;102075.88;;;-0.31;89.91
72961;BME280;61141;46.204;19.774;2022-12-18T03:40:59;102078.50;;;-0.10;90.21
72961;BME280;61141;46.204;19.774;2022-12-18T03:50:22;102088.00;;;-0.29;89.29
72961;BME280;61141;46.204;19.774;2022-12-18T03:53:51;102093.47;;;0.08;89.83
72961;BME280;61141;46.204;19.774;2022-12-18T03:57:03;102103.03;;;-0.06;88.98
72961;BME280;61141;46.204;19.774;2022-12-18T04:00:13;102091.56;;;-0.23;88.84
72961;BME280;61141;46.204;19.774;2022-12-18T04:03:26;102123.00;;;-0.02;89.76
72961;BME280;61141;46.204;19.774;2022-12-18T04:06:35;102127.22;;;-0.11;89.44
72961;BME280;61141;46.204;19.774;2022-12-18T04:09:40;102108.25;;;-0.48;89.73
72961;BME280;61141;46.204;19.774;2022-12-18T04:12:44;102116.94;;;-0.41;90.40
72961;BME280;61141;46.204;19.774;2022-12-18T04:15:48;102125.59;;;-0.12;90.72
72961;BME280;61141;46.204;19.774;2022-12-18T04:18:52;102131.81;;;-0.12;91.02
72961;BME280;61141;46.204;19.774;2022-12-18T04:21:55;102135.94;;;0.01;90.65
72961;BME280;61141;46.204;19.774;2022-12-18T04:24:59;102136.09;;;0.16;90.30
72961;BME280;61141;46.204;19.774;2022-12-18T04:28:02;102134.31;;;0.27;90.05
72961;BME280;61141;46.204;19.774;2022-12-18T04:31:05;102143.25;;;0.32;89.72
72961;BME280;61141;46.204;19.774;2022-12-18T04:34:08;102143.22;;;0.27;89.45
72961;BME280;61141;46.204;19.774;2022-12-18T04:37:11;102154.50;;;0.24;89.75
72961;BME280;61141;46.204;19.774;2022-12-18T04:40:15;102158.41;;;0.38;89.97
72961;BME280;61141;46.204;19.774;2022-12-18T04:43:18;102174.97;;;0.25;89.66
72961;BME280;61141;46.204;19.774;2022-12-18T04:46:21;102159.19;;;0.07;89.71
72961;BME280;61141;46.204;19.774;2022-12-18T04:49:24;102177.53;;;0.10;89.53
72961;BME280;61141;46.204;19.774;2022-12-18T04:52:31;102187.81;;;0.13;90.18
72961;BME280;61141;46.204;19.774;2022-12-18T04:55:34;102190.94;;;0.32;90.73
72961;BME280;61141;46.204;19.774;2022-12-18T04:58:38;102171.00;;;0.06;89.82
72961;BME280;61141;46.204;19.774;2022-12-18T05:01:41;102176.25;;;0.18;89.98
72961;BME280;61141;46.204;19.774;2022-12-18T05:04:45;102185.19;;;-0.04;90.04
72961;BME280;61141;46.204;19.774;2022-12-18T05:07:47;102181.63;;;0.18;90.44
72961;BME280;61141;46.204;19.774;2022-12-18T05:11:01;102195.56;;;0.10;89.87
72961;BME280;61141;46.204;19.774;2022-12-18T05:14:04;102196.34;;;0.05;91.11
72961;BME280;61141;46.204;19.774;2022-12-18T05:17:07;102188.59;;;-0.13;90.82
72961;BME280;61141;46.204;19.774;2022-12-18T05:20:10;102193.16;;;-0.14;91.33
72961;BME280;61141;46.204;19.774;2022-12-18T05:23:13;102200.06;;;-0.23;91.86
72961;BME280;61141;46.204;19.774;2022-12-18T05:26:17;102202.47;;;0.00;92.13
72961;BME280;61141;46.204;19.774;2022-12-18T05:29:21;102213.03;;;0.34;92.67
72961;BME280;61141;46.204;19.774;2022-12-18T05:32:23;102215.44;;;0.04;91.60
72961;BME280;61141;46.204;19.774;2022-12-18T05:35:26;102209.63;;;0.17;91.97
72961;BME280;61141;46.204;19.774;2022-12-18T05:38:31;102215.66;;;0.24;91.82
72961;BME280;61141;46.204;19.774;2022-12-18T05:41:34;102215.66;;;-0.03;92.07
72961;BME280;61141;46.204;19.774;2022-12-18T05:44:37;102233.47;;;0.03;91.85
72961;BME280;61141;46.204;19.774;2022-12-18T05:47:40;102238.03;;;0.24;92.66
72961;BME280;61141;46.204;19.774;2022-12-18T05:50:45;102240.09;;;0.17;92.26
72961;BME280;61141;46.204;19.774;2022-12-18T05:53:48;102245.31;;;0.02;91.95
72961;BME280;61141;46.204;19.774;2022-12-18T05:56:51;102251.59;;;0.08;93.11
72961;BME280;61141;46.204;19.774;2022-12-18T05:59:54;102257.16;;;0.01;92.87
72961;BME280;61141;46.204;19.774;2022-12-18T06:02:56;102264.94;;;0.19;93.10
72961;BME280;61141;46.204;19.774;2022-12-18T06:05:59;102263.25;;;0.13;93.35
72961;BME280;61141;46.204;19.774;2022-12-18T06:09:03;102259.16;;;0.11;93.75
72961;BME280;61141;46.204;19.774;2022-12-18T06:12:10;102255.31;;;0.28;92.88
72961;BME280;61141;46.204;19.774;2022-12-18T06:15:13;102262.50;;;-0.04;92.75
72961;BME280;61141;46.204;19.774;2022-12-18T06:18:17;102268.38;;;-0.07;93.06
72961;BME280;61141;46.204;19.774;2022-12-18T06:21:20;102264.00;;;-0.13;93.05
72961;BME280;61141;46.204;19.774;2022-12-18T06:24:23;102260.78;;;-0.10;93.46
72961;BME280;61141;46.204;19.774;2022-12-18T06:27:25;102258.00;;;-0.20;93.47
72961;BME280;61141;46.204;19.774;2022-12-18T06:30:28;102263.87;;;-0.23;93.89
72961;BME280;61141;46.204;19.774;2022-12-18T06:33:32;102275.19;;;-0.21;94.00
72961;BME280;61141;46.204;19.774;2022-12-18T06:36:35;102279.28;;;-0.57;93.96
72961;BME280;61141;46.204;19.774;2022-12-18T06:39:38;102289.12;;;-0.46;94.08
72961;BME280;61141;46.204;19.774;2022-12-18T06:42:41;102270.97;;;-0.55;94.32
72961;BME280;61141;46.204;19.774;2022-12-18T06:45:44;102299.47;;;-0.38;94.23
72961;BME280;61141;46.204;19.774;2022-12-18T06:48:48;102296.94;;;-0.28;93.94
72961;BME280;61141;46.204;19.774;2022-12-18T06:51:52;102314.34;;;-0.52;93.83
72961;BME280;61141;46.204;19.774;2022-12-18T06:54:55;102313.88;;;-0.66;94.30
72961;BME280;61141;46.204;19.774;2022-12-18T06:57:57;102319.84;;;-0.64;94.74
72961;BME280;61141;46.204;19.774;2022-12-18T07:01:04;102325.78;;;-0.62;94.72
72961;BME280;61141;46.204;19.774;2022-12-18T07:04:08;102325.84;;;-0.56;94.69
72961;BME280;61141;46.204;19.774;2022-12-18T07:07:11;102323.31;;;-0.46;94.63
72961;BME280;61141;46.204;19.774;2022-12-18T07:10:14;102338.97;;;-0.43;94.61
72961;BME280;61141;46.204;19.774;2022-12-18T07:13:17;102343.28;;;-0.04;94.67
72961;BME280;61141;46.204;19.774;2022-12-18T07:16:20;102353.84;;;-0.19;94.25
72961;BME280;61141;46.204;19.774;2022-12-18T07:19:27;102357.56;;;-0.25;94.00
72961;BME280;61141;46.204;19.774;2022-12-18T07:22:30;102355.34;;;0.10;93.75
72961;BME280;61141;46.204;19.774;2022-12-18T07:25:35;102365.13;;;0.16;93.75
72961;BME280;61141;46.204;19.774;2022-12-18T07:28:40;102373.59;;;0.25;93.02
72961;BME280;61141;46.204;19.774;2022-12-18T07:31:43;102376.69;;;0.17;93.06
72961;BME280;61141;46.204;19.774;2022-12-18T07:34:46;102372.81;;;0.29;93.64
72961;BME280;61141;46.204;19.774;2022-12-18T07:37:49;102386.94;;;-0.02;93.18
72961;BME280;61141;46.204;19.774;2022-12-18T07:40:52;102390.91;;;0.12;93.68
72961;BME280;61141;46.204;19.774;2022-12-18T07:43:55;102395.31;;;0.18;93.65
72961;BME280;61141;46.204;19.774;2022-12-18T07:46:58;102399.56;;;0.14;93.76
72961;BME280;61141;46.204;19.774;2022-12-18T07:50:01;102403.81;;;0.10;94.58
72961;BME280;61141;46.204;19.774;2022-12-18T07:53:03;102412.53;;;-0.21;95.35
72961;BME280;61141;46.204;19.774;2022-12-18T07:56:09;102400.38;;;0.15;94.31
72961;BME280;61141;46.204;19.774;2022-12-18T07:59:29;102428.34;;;0.74;92.67
72961;BME280;61141;46.204;19.774;2022-12-18T08:02:32;102424.91;;;0.56;91.73
72961;BME280;61141;46.204;19.774;2022-12-18T08:05:36;102426.37;;;-0.13;93.37
72961;BME280;61141;46.204;19.774;2022-12-18T08:08:38;102426.00;;;0.17;93.25
72961;BME280;61141;46.204;19.774;2022-12-18T08:11:44;102435.12;;;0.54;93.44
72961;BME280;61141;46.204;19.774;2022-12-18T08:14:47;102436.94;;;0.71;92.36
72961;BME280;61141;46.204;19.774;2022-12-18T08:17:50;102434.03;;;0.55;91.31
72961;BME280;61141;46.204;19.774;2022-12-18T08:20:54;102445.84;;;0.49;91.60
72961;BME280;61141;46.204;19.774;2022-12-18T08:23:59;102455.62;;;0.77;91.17
72961;BME280;61141;46.204;19.774;2022-12-18T08:27:02;102458.75;;;0.47;91.51
72961;BME280;61141;46.204;19.774;2022-12-18T08:30:25;102467.81;;;0.80;91.96
72961;BME280;61141;46.204;19.774;2022-12-18T08:33:28;102469.63;;;0.74;90.97
72961;BME280;61141;46.204;19.774;2022-12-18T08:36:31;102469.81;;;0.68;91.51
72961;BME280;61141;46.204;19.774;2022-12-18T08:39:34;102474.88;;;0.64;91.17
72961;BME280;61141;46.204;19.774;2022-12-18T08:42:37;102481.84;;;0.82;90.01
72961;BME280;61141;46.204;19.774;2022-12-18T08:45:58;102479.53;;;0.90;89.98
72961;BME280;61141;46.204;19.774;2022-12-18T08:49:01;102479.53;;;0.69;90.04
72961;BME280;61141;46.204;19.774;2022-12-18T08:52:05;102470.91;;;1.15;89.72
72961;BME280;61141;46.204;19.774;2022-12-18T08:55:08;102470.56;;;1.38;88.63
72961;BME280;61141;46.204;19.774;2022-12-18T08:58:11;102466.97;;;1.54;87.59
72961;BME280;61141;46.204;19.774;2022-12-18T09:01:14;102466.97;;;1.01;88.08
72961;BME280;61141;46.204;19.774;2022-12-18T09:04:16;102473.50;;;1.05;89.16
72961;BME280;61141;46.204;19.774;2022-12-18T09:07:19;102480.84;;;0.66;89.52
72961;BME280;61141;46.204;19.774;2022-12-18T09:10:22;102474.72;;;0.97;89.50
72961;BME280;61141;46.204;19.774;2022-12-18T09:13:25;102472.38;;;1.54;89.08
72961;BME280;61141;46.204;19.774;2022-12-18T09:16:28;102484.50;;;1.52;87.97
72961;BME280;61141;46.204;19.774;2022-12-18T09:19:34;102483.28;;;1.16;87.33
72961;BME280;61141;46.204;19.774;2022-12-18T09:22:37;102486.44;;;1.08;88.06
72961;BME280;61141;46.204;19.774;2022-12-18T09:25:40;102500.00;;;1.66;87.07
72961;BME280;61141;46.204;19.774;2022-12-18T09:28:43;102498.41;;;1.65;86.87
72961;BME280;61141;46.204;19.774;2022-12-18T09:31:46;102499.84;;;2.10;85.57
72961;BME280;61141;46.204;19.774;2022-12-18T09:34:49;102507.75;;;1.31;85.76
72961;BME280;61141;46.204;19.774;2022-12-18T09:37:52;102499.50;;;1.69;85.74
72961;BME280;61141;46.204;19.774;2022-12-18T09:41:00;102499.53;;;1.74;85.90
72961;BME280;61141;46.204;19.774;2022-12-18T09:44:27;102503.31;;;1.73;85.65
72961;BME280;61141;46.204;19.774;2022-12-18T09:47:34;102505.41;;;1.66;84.78
72961;BME280;61141;46.204;19.774;2022-12-18T09:50:40;102497.06;;;2.05;85.22
72961;BME280;61141;46.204;19.774;2022-12-18T09:57:20;102490.53;;;1.96;82.84
72961;BME280;61141;46.204;19.774;2022-12-18T10:00:25;102492.84;;;2.19;82.35
72961;BME280;61141;46.204;19.774;2022-12-18T10:03:28;102497.50;;;2.70;81.61
72961;BME280;61141;46.204;19.774;2022-12-18T10:07:11;102481.94;;;2.04;81.90
72961;BME280;61141;46.204;19.774;2022-12-18T10:10:36;102488.91;;;2.31;81.77
72961;BME280;61141;46.204;19.774;2022-12-18T10:13:45;102480.84;;;2.05;80.85
72961;BME280;61141;46.204;19.774;2022-12-18T10:16:57;102476.16;;;2.32;80.54
72961;BME280;61141;46.204;19.774;2022-12-18T10:20:27;102468.28;;;2.20;79.98
72961;BME280;61141;46.204;19.774;2022-12-18T10:23:47;102473.06;;;2.55;78.55
72961;BME280;61141;46.204;19.774;2022-12-18T10:26:59;102470.03;;;2.47;77.73
72961;BME280;61141;46.204;19.774;2022-12-18T10:30:20;102468.47;;;2.61;78.39
72961;BME280;61141;46.204;19.774;2022-12-18T10:33:28;102467.75;;;2.80;78.64
72961;BME280;61141;46.204;19.774;2022-12-18T10:36:31;102462.34;;;2.75;77.35
72961;BME280;61141;46.204;19.774;2022-12-18T10:39:34;102453.69;;;2.73;76.19
72961;BME280;61141;46.204;19.774;2022-12-18T10:42:37;102470.13;;;2.62;76.48
72961;BME280;61141;46.204;19.774;2022-12-18T10:45:40;102472.50;;;2.53;77.47
72961;BME280;61141;46.204;19.774;2022-12-18T10:51:49;102467.22;;;2.83;76.83
72961;BME280;61141;46.204;19.774;2022-12-18T10:54:55;102462.34;;;2.80;76.93
72961;BME280;61141;46.204;19.774;2022-12-18T10:58:32;102458.97;;;2.48;76.79
72961;BME280;61141;46.204;19.774;2022-12-18T11:01:52;102467.97;;;2.64;77.03
72961;BME280;61141;46.204;19.774;2022-12-18T11:04:55;102458.06;;;2.94;77.08
72961;BME280;61141;46.204;19.774;2022-12-18T11:07:59;102453.91;;;2.67;76.29
72961;BME280;61141;46.204;19.774;2022-12-18T11:11:06;102457.78;;;2.96;76.93
72961;BME280;61141;46.204;19.774;2022-12-18T11:14:17;102462.06;;;2.77;76.77
72961;BME280;61141;46.204;19.774;2022-12-18T11:17:33;102461.09;;;3.13;76.21
72961;BME280;61141;46.204;19.774;2022-12-18T11:20:38;102455.97;;;3.17;73.97
72961;BME280;61141;46.204;19.774;2022-12-18T11:23:51;102450.09;;;2.63;76.36
72961;BME280;61141;46.204;19.774;2022-12-18T11:27:00;102437.06;;;2.55;76.12
72961;BME280;61141;46.204;19.774;2022-12-18T11:30:31;102456.50;;;3.09;76.31
72961;BME280;61141;46.204;19.774;2022-12-18T11:33:37;102458.53;;;2.76;74.38
72961;BME280;61141;46.204;19.774;2022-12-18T11:37:03;102451.97;;;2.57;75.34
72961;BME280;61141;46.204;19.774;2022-12-18T11:40:14;102454.22;;;2.75;75.60
72961;BME280;61141;46.204;19.774;2022-12-18T11:43:26;102471.59;;;2.94;75.93
72961;BME280;61141;46.204;19.774;2022-12-18T11:46:34;102462.72;;;3.19;74.53
72961;BME280;61141;46.204;19.774;2022-12-18T11:49:40;102464.63;;;3.19;72.41
72961;BME280;61141;46.204;19.774;2022-12-18T11:52:44;102467.31;;;3.04;74.79
72961;BME280;61141;46.204;19.774;2022-12-18T11:55:49;102463.50;;;3.00;74.36
72961;BME280;61141;46.204;19.774;2022-12-18T11:59:08;102476.28;;;3.19;73.69
72961;BME280;61141;46.204;19.774;2022-12-18T12:16:51;102488.19;;;3.23;72.50
72961;BME280;61141;46.204;19.774;2022-12-18T12:23:22;102470.87;;;3.29;73.20
72961;BME280;61141;46.204;19.774;2022-12-18T12:39:37;102453.72;;;2.93;73.79
72961;BME280;61141;46.204;19.774;2022-12-18T12:42:55;102451.00;;;2.83;74.08
72961;BME280;61141;46.204;19.774;2022-12-18T12:46:18;102445.59;;;2.93;74.23
72961;BME280;61141;46.204;19.774;2022-12-18T12:49:27;102440.25;;;3.04;74.06
72961;BME280;61141;46.204;19.774;2022-12-18T12:52:39;102447.22;;;2.89;73.90
72961;BME280;61141;46.204;19.774;2022-12-18T12:55:43;102448.06;;;2.95;73.14
72961;BME280;61141;46.204;19.774;2022-12-18T12:58:59;102458.06;;;2.94;73.01
72961;BME280;61141;46.204;19.774;2022-12-18T13:05:28;102474.47;;;2.68;74.22
72961;BME280;61141;46.204;19.774;2022-12-18T13:08:55;102479.12;;;2.87;74.83
72961;BME280;61141;46.204;19.774;2022-12-18T13:12:03;102465.06;;;2.85;74.43
72961;BME280;61141;46.204;19.774;2022-12-18T13:15:39;102463.47;;;2.89;74.37
72961;BME280;61141;46.204;19.774;2022-12-18T13:18:52;102470.75;;;2.84;73.68
72961;BME280;61141;46.204;19.774;2022-12-18T13:21:55;102472.66;;;2.83;73.95
72961;BME280;61141;46.204;19.774;2022-12-18T13:24:59;102477.56;;;2.96;73.64
72961;BME280;61141;46.204;19.774;2022-12-18T13:28:06;102472.66;;;2.88;73.11
72961;BME280;61141;46.204;19.774;2022-12-18T13:31:12;102496.47;;;2.81;73.37
72961;BME280;61141;46.204;19.774;2022-12-18T13:43:49;102502.28;;;2.58;73.82
72961;BME280;61141;46.204;19.774;2022-12-18T13:46:53;102507.34;;;3.02;74.48
72961;BME280;61141;46.204;19.774;2022-12-18T13:49:57;102505.09;;;2.73;74.19
72961;BME280;61141;46.204;19.774;2022-12-18T13:53:00;102515.50;;;2.50;74.00
72961;BME280;61141;46.204;19.774;2022-12-18T13:56:03;102509.09;;;2.71;75.12
72961;BME280;61141;46.204;19.774;2022-12-18T13:59:22;102513.12;;;2.63;75.42
72961;BME280;61141;46.204;19.774;2022-12-18T14:02:28;102515.28;;;2.61;75.51
72961;BME280;61141;46.204;19.774;2022-12-18T14:05:35;102528.50;;;2.53;75.75
72961;BME280;61141;46.204;19.774;2022-12-18T14:08:41;102530.12;;;2.54;76.41
72961;BME280;61141;46.204;19.774;2022-12-18T14:11:48;102530.38;;;2.52;76.87
72961;BME280;61141;46.204;19.774;2022-12-18T14:14:52;102533.56;;;2.44;77.10
72961;BME280;61141;46.204;19.774;2022-12-18T14:18:02;102540.62;;;2.45;77.52
72961;BME280;61141;46.204;19.774;2022-12-18T14:21:20;102533.56;;;2.44;78.21
72961;BME280;61141;46.204;19.774;2022-12-18T14:24:23;102547.91;;;2.45;78.46
72961;BME280;61141;46.204;19.774;2022-12-18T14:27:26;102549.13;;;2.27;80.08
72961;BME280;61141;46.204;19.774;2022-12-18T14:30:37;102550.06;;;2.06;81.46
72961;BME280;61141;46.204;19.774;2022-12-18T14:33:41;102550.00;;;1.96;82.33
72961;BME280;61141;46.204;19.774;2022-12-18T14:36:53;102551.63;;;1.70;81.55
72961;BME280;61141;46.204;19.774;2022-12-18T14:40:00;102543.84;;;1.73;82.49
72961;BME280;61141;46.204;19.774;2022-12-18T14:43:12;102543.50;;;1.65;83.23
72961;BME280;61141;46.204;19.774;2022-12-18T14:46:37;102550.50;;;1.66;84.18
72961;BME280;61141;46.204;19.774;2022-12-18T14:49:41;102553.84;;;1.46;84.84
72961;BME280;61141;46.204;19.774;2022-12-18T14:52:45;102555.16;;;1.22;84.16
72961;BME280;61141;46.204;19.774;2022-12-18T14:55:48;102565.28;;;1.10;84.04
72961;BME280;61141;46.204;19.774;2022-12-18T14:58:58;102568.72;;;1.27;84.63
72961;BME280;61141;46.204;19.774;2022-12-18T15:02:03;102570.97;;;1.13;83.84
72961;BME280;61141;46.204;19.774;2022-12-18T15:05:21;102580.72;;;0.93;83.99
72961;BME280;61141;46.204;19.774;2022-12-18T15:08:34;102571.69;;;1.04;85.14
72961;BME280;61141;46.204;19.774;2022-12-18T15:14:44;102579.81;;;0.66;85.37
72961;BME280;61141;46.204;19.774;2022-12-18T15:17:47;102582.59;;;0.37;86.39
72961;BME280;61141;46.204;19.774;2022-12-18T15:23:59;102584.59;;;0.64;88.04
72961;BME280;61141;46.204;19.774;2022-12-18T15:27:03;102592.56;;;0.53;87.56
72961;BME280;61141;46.204;19.774;2022-12-18T15:33:26;102599.94;;;0.08;88.50
72961;BME280;61141;46.204;19.774;2022-12-18T15:36:32;102594.34;;;0.15;88.69
72961;BME280;61141;46.204;19.774;2022-12-18T15:39:38;102611.66;;;0.02;88.90
72961;BME280;61141;46.204;19.774;2022-12-18T15:42:41;102618.78;;;0.08;89.54
72961;BME280;61141;46.204;19.774;2022-12-18T15:46:15;102614.31;;;0.30;89.76
72961;BME280;61141;46.204;19.774;2022-12-18T15:49:18;102630.56;;;0.52;89.84
72961;BME280;61141;46.204;19.774;2022-12-18T15:52:22;102628.00;;;0.29;89.09
72961;BME280;61141;46.204;19.774;2022-12-18T15:55:28;102621.22;;;0.26;88.79
72961;BME280;61141;46.204;19.774;2022-12-18T15:58:50;102638.38;;;0.20;89.42
72961;BME280;61141;46.204;19.774;2022-12-18T16:01:53;102635.44;;;-0.23;89.40
72961;BME280;61141;46.204;19.774;2022-12-18T16:04:57;102646.03;;;-0.33;91.07
72961;BME280;61141;46.204;19.774;2022-12-18T16:08:00;102655.75;;;-0.44;90.79
72961;BME280;61141;46.204;19.774;2022-12-18T16:11:03;102662.62;;;-0.65;90.46
72961;BME280;61141;46.204;19.774;2022-12-18T16:14:26;102654.91;;;-0.73;90.47
72961;BME280;61141;46.204;19.774;2022-12-18T16:17:30;102658.06;;;-0.76;90.95
72961;BME280;61141;46.204;19.774;2022-12-18T16:20:33;102647.09;;;-0.86;91.55
72961;BME280;61141;46.204;19.774;2022-12-18T16:23:36;102656.56;;;-0.83;92.07
72961;BME280;61141;46.204;19.774;2022-12-18T16:26:40;102667.91;;;-0.93;92.35
72961;BME280;61141;46.204;19.774;2022-12-18T16:29:45;102673.28;;;-0.93;92.89
72961;BME280;61141;46.204;19.774;2022-12-18T16:32:48;102677.28;;;-1.07;92.43
72961;BME280;61141;46.204;19.774;2022-12-18T16:35:52;102679.84;;;-1.12;92.93
72961;BME280;61141;46.204;19.774;2022-12-18T16:38:55;102689.69;;;-1.06;92.88
72961;BME280;61141;46.204;19.774;2022-12-18T16:41:58;102690.81;;;-0.79;93.35
72961;BME280;61141;46.204;19.774;2022-12-18T16:45:05;102699.25;;;-0.87;92.40
72961;BME280;61141;46.204;19.774;2022-12-18T16:48:08;102697.41;;;-0.98;92.26
72961;BME280;61141;46.204;19.774;2022-12-18T16:51:11;102687.78;;;-0.94;92.80
72961;BME280;61141;46.204;19.774;2022-12-18T16:54:15;102696.69;;;-0.93;92.24
72961;BME280;61141;46.204;19.774;2022-12-18T16:57:21;102699.72;;;-1.13;92.20
72961;BME280;61141;46.204;19.774;2022-12-18T17:00:27;102699.28;;;-1.22;93.03
72961;BME280;61141;46.204;19.774;2022-12-18T17:03:30;102691.03;;;-0.69;93.12
72961;BME280;61141;46.204;19.774;2022-12-18T17:06:38;102684.06;;;-0.93;92.21
72961;BME280;61141;46.204;19.774;2022-12-18T17:09:41;102696.66;;;-1.05;92.30
72961;BME280;61141;46.204;19.774;2022-12-18T17:12:44;102689.78;;;-1.01;93.22
72961;BME280;61141;46.204;19.774;2022-12-18T17:15:47;102691.53;;;-1.30;92.80
72961;BME280;61141;46.204;19.774;2022-12-18T17:18:52;102690.97;;;-1.08;93.72
72961;BME280;61141;46.204;19.774;2022-12-18T17:21:55;102690.72;;;-1.07;92.94
72961;BME280;61141;46.204;19.774;2022-12-18T17:24:58;102696.91;;;-1.18;93.21
72961;BME280;61141;46.204;19.774;2022-12-18T17:28:01;102705.91;;;-1.36;93.09
72961;BME280;61141;46.204;19.774;2022-12-18T17:34:14;102709.19;;;-1.22;94.09
72961;BME280;61141;46.204;19.774;2022-12-18T17:37:17;102712.47;;;-1.08;93.89